sensor_id;sensor_type;location;lat;lon;timestamp;P1;durP1;ratioP1;P2;durP2;ratioP2
25531;SDS011;13429;48.816;9.118;2024-03-23T00:54:38;3.63;;;2.83;;
25531;SDS011;13429;48.816;9.118;2024-03-23T00:57:03;4.53;;;3.00;;
25531;SDS011;13429;48.816;9.118;2024-03-23T00:59:29;4.95;;;3.05;;
25531;SDS011;13429;48.816;9.118;2024-03-23T01:01:56;7.35;;;2.90;;
25531;SDS011;13429;48.816;9.118;2024-03-23T01:04:21;6.65;;;3.22;;
25531;SDS011;13429;48.816;9.118;2024-03-23T01:06:47;3.92;;;2.67;;
25531;SDS011;13429;48.816;9.118;2024-03-23T01:09:13;4.97;;;3.33;;
25531;SDS011;13429;48.816;9.118;2024-03-23T01:11:38;4.38;;;3.10;;
25531;SDS011;13429;48.816;9.118;2024-03-23T01:14:04;5.03;;;2.97;;
25531;SDS011;13429;48.816;9.118;2024-03-23T01:16:31;6.57;;;3.13;;
25531;SDS011;13429;48.816;9.118;2024-03-23T01:18:57;4.43;;;2.22;;
25531;SDS011;13429;48.816;9.118;2024-03-23T01:21:22;4.00;;;2.60;;
25531;SDS011;13429;48.816;9.118;2024-03-23T01:23:48;7.30;;;3.13;;
25531;SDS011;13429;48.816;9.118;2024-03-23T01:26:14;3.40;;;2.58;;
25531;SDS011;13429;48.816;9.118;2024-03-23T01:28:40;8.38;;;2.38;;
25531;SDS011;13429;48.816;9.118;2024-03-23T01:31:05;4.47;;;2.08;;
25531;SDS011;13429;48.816;9.118;2024-03-23T01:33:31;4.57;;;2.20;;
25531;SDS011;13429;48.816;9.118;2024-03-23T01:35:57;3.05;;;2.30;;
25531;SDS011;13429;48.816;9.118;2024-03-23T01:38:22;5.32;;;2.30;;
25531;SDS011;13429;48.816;9.118;2024-03-23T01:40:48;4.22;;;2.17;;
25531;SDS011;13429;48.816;9.118;2024-03-23T01:43:14;3.42;;;2.28;;
25531;SDS011;13429;48.816;9.118;2024-03-23T01:45:39;7.43;;;2.40;;
25531;SDS011;13429;48.816;9.118;2024-03-23T01:48:05;2.58;;;1.92;;
25531;SDS011;13429;48.816;9.118;2024-03-23T01:50:31;3.72;;;2.00;;
25531;SDS011;13429;48.816;9.118;2024-03-23T01:52:59;4.40;;;2.63;;
25531;SDS011;13429;48.816;9.118;2024-03-23T01:55:27;3.15;;;2.30;;
25531;SDS011;13429;48.816;9.118;2024-03-23T01:57:53;8.00;;;3.15;;
25531;SDS011;13429;48.816;9.118;2024-03-23T02:00:22;4.15;;;2.25;;
25531;SDS011;13429;48.816;9.118;2024-03-23T02:02:48;6.65;;;3.53;;
25531;SDS011;13429;48.816;9.118;2024-03-23T02:05:14;5.15;;;2.45;;
25531;SDS011;13429;48.816;9.118;2024-03-23T02:07:40;5.22;;;2.92;;
25531;SDS011;13429;48.816;9.118;2024-03-23T02:10:08;2.72;;;2.00;;
25531;SDS011;13429;48.816;9.118;2024-03-23T02:12:35;6.53;;;2.40;;
25531;SDS011;13429;48.816;9.118;2024-03-23T02:15:01;6.70;;;3.38;;
25531;SDS011;13429;48.816;9.118;2024-03-23T02:17:27;6.55;;;2.08;;
25531;SDS011;13429;48.816;9.118;2024-03-23T02:19:55;4.45;;;2.50;;
25531;SDS011;13429;48.816;9.118;2024-03-23T02:22:20;5.72;;;2.53;;
25531;SDS011;13429;48.816;9.118;2024-03-23T02:24:46;3.80;;;2.15;;
25531;SDS011;13429;48.816;9.118;2024-03-23T02:27:12;3.28;;;2.03;;
25531;SDS011;13429;48.816;9.118;2024-03-23T02:29:37;6.20;;;2.72;;
25531;SDS011;13429;48.816;9.118;2024-03-23T02:32:03;5.53;;;2.35;;
25531;SDS011;13429;48.816;9.118;2024-03-23T02:34:29;4.47;;;2.38;;
25531;SDS011;13429;48.816;9.118;2024-03-23T02:36:55;3.17;;;2.13;;
25531;SDS011;13429;48.816;9.118;2024-03-23T02:39:20;7.13;;;2.80;;
25531;SDS011;13429;48.816;9.118;2024-03-23T02:41:46;5.32;;;2.58;;
25531;SDS011;13429;48.816;9.118;2024-03-23T02:44:13;3.58;;;2.38;;
25531;SDS011;13429;48.816;9.118;2024-03-23T02:46:39;9.77;;;3.60;;
25531;SDS011;13429;48.816;9.118;2024-03-23T02:49:04;4.70;;;2.50;;
25531;SDS011;13429;48.816;9.118;2024-03-23T02:51:30;3.75;;;2.70;;
25531;SDS011;13429;48.816;9.118;2024-03-23T02:53:56;3.60;;;2.17;;
25531;SDS011;13429;48.816;9.118;2024-03-23T02:56:22;4.53;;;2.35;;
25531;SDS011;13429;48.816;9.118;2024-03-23T02:58:48;4.35;;;2.20;;
25531;SDS011;13429;48.816;9.118;2024-03-23T03:01:13;3.45;;;2.50;;
25531;SDS011;13429;48.816;9.118;2024-03-23T03:03:40;5.10;;;2.67;;
25531;SDS011;13429;48.816;9.118;2024-03-23T03:06:05;4.95;;;2.60;;
25531;SDS011;13429;48.816;9.118;2024-03-23T03:08:31;4.30;;;2.35;;
25531;SDS011;13429;48.816;9.118;2024-03-23T03:10:56;3.92;;;2.08;;
25531;SDS011;13429;48.816;9.118;2024-03-23T03:13:22;2.90;;;2.20;;
25531;SDS011;13429;48.816;9.118;2024-03-23T03:15:48;6.18;;;3.10;;
25531;SDS011;13429;48.816;9.118;2024-03-23T03:18:13;2.95;;;2.40;;
25531;SDS011;13429;48.816;9.118;2024-03-23T03:20:40;3.85;;;2.55;;
25531;SDS011;13429;48.816;9.118;2024-03-23T03:23:06;6.85;;;2.55;;
25531;SDS011;13429;48.816;9.118;2024-03-23T03:25:32;3.88;;;2.55;;
25531;SDS011;13429;48.816;9.118;2024-03-23T03:27:57;5.53;;;2.47;;
25531;SDS011;13429;48.816;9.118;2024-03-23T03:30:23;5.00;;;2.53;;
25531;SDS011;13429;48.816;9.118;2024-03-23T03:32:49;3.78;;;2.45;;
25531;SDS011;13429;48.816;9.118;2024-03-23T03:35:16;3.95;;;2.30;;
25531;SDS011;13429;48.816;9.118;2024-03-23T03:37:42;4.97;;;2.47;;
25531;SDS011;13429;48.816;9.118;2024-03-23T03:40:07;3.10;;;2.03;;
25531;SDS011;13429;48.816;9.118;2024-03-23T03:42:34;6.10;;;3.47;;
25531;SDS011;13429;48.816;9.118;2024-03-23T03:45:00;4.50;;;2.67;;
25531;SDS011;13429;48.816;9.118;2024-03-23T03:47:25;3.28;;;2.40;;
25531;SDS011;13429;48.816;9.118;2024-03-23T03:49:51;5.25;;;2.15;;
25531;SDS011;13429;48.816;9.118;2024-03-23T03:52:17;5.30;;;3.00;;
25531;SDS011;13429;48.816;9.118;2024-03-23T03:54:42;4.43;;;2.28;;
25531;SDS011;13429;48.816;9.118;2024-03-23T03:57:08;7.55;;;2.80;;
25531;SDS011;13429;48.816;9.118;2024-03-23T03:59:33;5.10;;;2.10;;
25531;SDS011;13429;48.816;9.118;2024-03-23T04:01:59;5.22;;;2.05;;
25531;SDS011;13429;48.816;9.118;2024-03-23T04:04:25;4.10;;;2.45;;
25531;SDS011;13429;48.816;9.118;2024-03-23T04:06:57;2.90;;;2.10;;
25531;SDS011;13429;48.816;9.118;2024-03-23T04:09:26;5.55;;;2.45;;
25531;SDS011;13429;48.816;9.118;2024-03-23T04:11:53;3.55;;;2.28;;
25531;SDS011;13429;48.816;9.118;2024-03-23T04:14:19;4.47;;;2.33;;
25531;SDS011;13429;48.816;9.118;2024-03-23T04:16:45;3.50;;;2.30;;
25531;SDS011;13429;48.816;9.118;2024-03-23T04:19:11;3.53;;;1.92;;
25531;SDS011;13429;48.816;9.118;2024-03-23T04:21:40;6.38;;;2.20;;
25531;SDS011;13429;48.816;9.118;2024-03-23T04:24:06;3.55;;;2.50;;
25531;SDS011;13429;48.816;9.118;2024-03-23T04:26:41;4.80;;;2.72;;
25531;SDS011;13429;48.816;9.118;2024-03-23T04:29:07;4.85;;;2.95;;
25531;SDS011;13429;48.816;9.118;2024-03-23T04:31:32;9.15;;;3.20;;
25531;SDS011;13429;48.816;9.118;2024-03-23T04:33:59;5.05;;;3.70;;
25531;SDS011;13429;48.816;9.118;2024-03-23T04:36:26;5.45;;;4.07;;
25531;SDS011;13429;48.816;9.118;2024-03-23T04:38:51;5.45;;;4.32;;
25531;SDS011;13429;48.816;9.118;2024-03-23T04:41:17;8.20;;;4.68;;
25531;SDS011;13429;48.816;9.118;2024-03-23T04:43:43;5.97;;;4.80;;
25531;SDS011;13429;48.816;9.118;2024-03-23T04:46:09;10.00;;;5.82;;
25531;SDS011;13429;48.816;9.118;2024-03-23T04:48:34;8.60;;;6.35;;
25531;SDS011;13429;48.816;9.118;2024-03-23T04:51:01;11.73;;;7.15;;
25531;SDS011;13429;48.816;9.118;2024-03-23T04:53:27;9.98;;;6.85;;
25531;SDS011;13429;48.816;9.118;2024-03-23T04:55:55;12.13;;;7.78;;
25531;SDS011;13429;48.816;9.118;2024-03-23T04:58:24;12.38;;;8.13;;
25531;SDS011;13429;48.816;9.118;2024-03-23T05:00:57;14.15;;;10.25;;
25531;SDS011;13429;48.816;9.118;2024-03-23T05:03:23;17.40;;;10.82;;
25531;SDS011;13429;48.816;9.118;2024-03-23T05:05:49;19.23;;;13.50;;
25531;SDS011;13429;48.816;9.118;2024-03-23T05:08:15;23.63;;;14.77;;
25531;SDS011;13429;48.816;9.118;2024-03-23T05:10:42;23.48;;;16.42;;
25531;SDS011;13429;48.816;9.118;2024-03-23T05:13:08;29.90;;;16.58;;
25531;SDS011;13429;48.816;9.118;2024-03-23T05:15:34;21.52;;;15.75;;
25531;SDS011;13429;48.816;9.118;2024-03-23T05:18:00;22.33;;;15.18;;
25531;SDS011;13429;48.816;9.118;2024-03-23T05:20:26;22.17;;;15.35;;
25531;SDS011;13429;48.816;9.118;2024-03-23T05:22:53;24.05;;;16.88;;
25531;SDS011;13429;48.816;9.118;2024-03-23T05:25:19;22.73;;;16.27;;
25531;SDS011;13429;48.816;9.118;2024-03-23T05:27:45;19.55;;;14.48;;
25531;SDS011;13429;48.816;9.118;2024-03-23T05:30:11;22.75;;;15.70;;
25531;SDS011;13429;48.816;9.118;2024-03-23T05:32:36;23.42;;;15.90;;
25531;SDS011;13429;48.816;9.118;2024-03-23T05:35:05;18.85;;;14.45;;
25531;SDS011;13429;48.816;9.118;2024-03-23T05:37:32;21.38;;;15.55;;
25531;SDS011;13429;48.816;9.118;2024-03-23T05:39:59;22.98;;;15.25;;
25531;SDS011;13429;48.816;9.118;2024-03-23T05:42:25;19.20;;;13.30;;
25531;SDS011;13429;48.816;9.118;2024-03-23T05:44:51;20.02;;;12.00;;
25531;SDS011;13429;48.816;9.118;2024-03-23T05:47:17;17.92;;;12.45;;
25531;SDS011;13429;48.816;9.118;2024-03-23T05:49:42;17.05;;;11.95;;
25531;SDS011;13429;48.816;9.118;2024-03-23T05:52:09;17.13;;;11.68;;
25531;SDS011;13429;48.816;9.118;2024-03-23T05:54:35;14.32;;;8.40;;
25531;SDS011;13429;48.816;9.118;2024-03-23T05:57:01;8.18;;;5.65;;
25531;SDS011;13429;48.816;9.118;2024-03-23T05:59:27;8.13;;;5.00;;
25531;SDS011;13429;48.816;9.118;2024-03-23T06:01:52;7.13;;;4.32;;
25531;SDS011;13429;48.816;9.118;2024-03-23T06:04:18;7.00;;;4.55;;
25531;SDS011;13429;48.816;9.118;2024-03-23T06:06:44;5.22;;;3.85;;
25531;SDS011;13429;48.816;9.118;2024-03-23T06:09:10;5.88;;;3.90;;
25531;SDS011;13429;48.816;9.118;2024-03-23T06:11:35;4.72;;;3.22;;
25531;SDS011;13429;48.816;9.118;2024-03-23T06:14:01;6.07;;;3.80;;
25531;SDS011;13429;48.816;9.118;2024-03-23T06:16:27;7.38;;;3.95;;
25531;SDS011;13429;48.816;9.118;2024-03-23T06:18:53;7.45;;;4.15;;
25531;SDS011;13429;48.816;9.118;2024-03-23T06:21:20;5.45;;;3.78;;
25531;SDS011;13429;48.816;9.118;2024-03-23T06:23:45;5.32;;;3.47;;
25531;SDS011;13429;48.816;9.118;2024-03-23T06:26:16;4.15;;;2.60;;
25531;SDS011;13429;48.816;9.118;2024-03-23T06:28:42;3.88;;;2.40;;
25531;SDS011;13429;48.816;9.118;2024-03-23T06:31:09;4.25;;;2.63;;
25531;SDS011;13429;48.816;9.118;2024-03-23T06:33:35;4.80;;;2.50;;
25531;SDS011;13429;48.816;9.118;2024-03-23T06:36:00;5.03;;;2.53;;
25531;SDS011;13429;48.816;9.118;2024-03-23T06:38:28;5.25;;;1.73;;
25531;SDS011;13429;48.816;9.118;2024-03-23T06:40:53;2.50;;;1.33;;
25531;SDS011;13429;48.816;9.118;2024-03-23T06:43:19;2.28;;;1.50;;
25531;SDS011;13429;48.816;9.118;2024-03-23T06:45:51;2.85;;;1.60;;
25531;SDS011;13429;48.816;9.118;2024-03-23T06:48:20;2.90;;;1.63;;
25531;SDS011;13429;48.816;9.118;2024-03-23T06:50:46;2.17;;;0.98;;
25531;SDS011;13429;48.816;9.118;2024-03-23T06:53:13;1.90;;;1.15;;
25531;SDS011;13429;48.816;9.118;2024-03-23T06:55:38;1.92;;;0.90;;
25531;SDS011;13429;48.816;9.118;2024-03-23T06:58:04;1.77;;;0.93;;
25531;SDS011;13429;48.816;9.118;2024-03-23T07:00:30;0.95;;;0.80;;
25531;SDS011;13429;48.816;9.118;2024-03-23T07:02:57;0.85;;;0.65;;
25531;SDS011;13429;48.816;9.118;2024-03-23T07:05:23;0.70;;;0.60;;
25531;SDS011;13429;48.816;9.118;2024-03-23T07:07:48;1.65;;;0.73;;
25531;SDS011;13429;48.816;9.118;2024-03-23T07:10:14;1.13;;;0.60;;
25531;SDS011;13429;48.816;9.118;2024-03-23T07:12:40;0.68;;;0.45;;
25531;SDS011;13429;48.816;9.118;2024-03-23T07:15:06;0.63;;;0.50;;
25531;SDS011;13429;48.816;9.118;2024-03-23T07:17:33;0.47;;;0.40;;
25531;SDS011;13429;48.816;9.118;2024-03-23T07:20:00;1.20;;;0.80;;
25531;SDS011;13429;48.816;9.118;2024-03-23T07:22:28;0.82;;;0.63;;
25531;SDS011;13429;48.816;9.118;2024-03-23T07:24:56;0.52;;;0.52;;
25531;SDS011;13429;48.816;9.118;2024-03-23T07:27:24;1.10;;;0.70;;
25531;SDS011;13429;48.816;9.118;2024-03-23T07:29:51;1.20;;;0.77;;
25531;SDS011;13429;48.816;9.118;2024-03-23T07:32:16;0.40;;;0.40;;
25531;SDS011;13429;48.816;9.118;2024-03-23T07:34:42;0.68;;;0.60;;
25531;SDS011;13429;48.816;9.118;2024-03-23T07:37:09;0.80;;;0.50;;
25531;SDS011;13429;48.816;9.118;2024-03-23T07:39:35;0.88;;;0.60;;
25531;SDS011;13429;48.816;9.118;2024-03-23T07:42:01;0.52;;;0.50;;
25531;SDS011;13429;48.816;9.118;2024-03-23T07:44:26;0.50;;;0.50;;
25531;SDS011;13429;48.816;9.118;2024-03-23T07:46:52;1.90;;;0.75;;
25531;SDS011;13429;48.816;9.118;2024-03-23T07:49:18;1.65;;;0.45;;
25531;SDS011;13429;48.816;9.118;2024-03-23T07:51:43;0.90;;;0.45;;
25531;SDS011;13429;48.816;9.118;2024-03-23T07:54:09;0.60;;;0.40;;
25531;SDS011;13429;48.816;9.118;2024-03-23T07:56:35;0.80;;;0.40;;
25531;SDS011;13429;48.816;9.118;2024-03-23T07:59:01;0.77;;;0.57;;
25531;SDS011;13429;48.816;9.118;2024-03-23T08:01:28;0.70;;;0.60;;
25531;SDS011;13429;48.816;9.118;2024-03-23T08:03:54;0.50;;;0.50;;
25531;SDS011;13429;48.816;9.118;2024-03-23T08:06:20;1.05;;;0.70;;
25531;SDS011;13429;48.816;9.118;2024-03-23T08:08:51;0.98;;;0.52;;
25531;SDS011;13429;48.816;9.118;2024-03-23T08:11:24;3.72;;;1.50;;
25531;SDS011;13429;48.816;9.118;2024-03-23T08:13:54;2.23;;;0.80;;
25531;SDS011;13429;48.816;9.118;2024-03-23T08:16:20;0.90;;;0.70;;
25531;SDS011;13429;48.816;9.118;2024-03-23T08:18:46;3.13;;;0.70;;
25531;SDS011;13429;48.816;9.118;2024-03-23T08:21:12;0.82;;;0.68;;
25531;SDS011;13429;48.816;9.118;2024-03-23T08:23:37;0.93;;;0.65;;
25531;SDS011;13429;48.816;9.118;2024-03-23T08:26:04;0.57;;;0.57;;
25531;SDS011;13429;48.816;9.118;2024-03-23T08:28:35;0.55;;;0.55;;
25531;SDS011;13429;48.816;9.118;2024-03-23T08:31:01;0.68;;;0.68;;
25531;SDS011;13429;48.816;9.118;2024-03-23T08:33:30;1.20;;;0.80;;
25531;SDS011;13429;48.816;9.118;2024-03-23T08:35:57;0.77;;;0.68;;
25531;SDS011;13429;48.816;9.118;2024-03-23T08:38:24;1.42;;;0.90;;
25531;SDS011;13429;48.816;9.118;2024-03-23T08:41:03;0.77;;;0.77;;
25531;SDS011;13429;48.816;9.118;2024-03-23T08:43:30;1.30;;;1.00;;
25531;SDS011;13429;48.816;9.118;2024-03-23T08:49:22;0.80;;;0.80;;
25531;SDS011;13429;48.816;9.118;2024-03-23T08:51:47;1.13;;;0.70;;
25531;SDS011;13429;48.816;9.118;2024-03-23T08:57:35;5.55;;;1.70;;
25531;SDS011;13429;48.816;9.118;2024-03-23T09:00:01;4.97;;;2.40;;
25531;SDS011;13429;48.816;9.118;2024-03-23T09:02:27;4.82;;;2.25;;
25531;SDS011;13429;48.816;9.118;2024-03-23T09:04:53;7.32;;;2.15;;
25531;SDS011;13429;48.816;9.118;2024-03-23T09:07:18;5.80;;;1.85;;
25531;SDS011;13429;48.816;9.118;2024-03-23T09:09:44;4.25;;;2.15;;
25531;SDS011;13429;48.816;9.118;2024-03-23T09:12:10;3.00;;;1.80;;
25531;SDS011;13429;48.816;9.118;2024-03-23T09:14:35;7.57;;;2.25;;
25531;SDS011;13429;48.816;9.118;2024-03-23T09:17:01;4.68;;;2.10;;
25531;SDS011;13429;48.816;9.118;2024-03-23T09:19:28;6.05;;;2.53;;
25531;SDS011;13429;48.816;9.118;2024-03-23T09:21:54;5.55;;;2.40;;
25531;SDS011;13429;48.816;9.118;2024-03-23T09:24:20;6.18;;;3.00;;
25531;SDS011;13429;48.816;9.118;2024-03-23T09:26:46;4.68;;;2.95;;
25531;SDS011;13429;48.816;9.118;2024-03-23T09:29:11;6.68;;;2.53;;
25531;SDS011;13429;48.816;9.118;2024-03-23T09:31:37;7.80;;;3.10;;
25531;SDS011;13429;48.816;9.118;2024-03-23T09:34:03;6.78;;;2.97;;
25531;SDS011;13429;48.816;9.118;2024-03-23T09:36:29;7.47;;;2.65;;
25531;SDS011;13429;48.816;9.118;2024-03-23T09:38:55;5.07;;;2.28;;
25531;SDS011;13429;48.816;9.118;2024-03-23T09:41:20;9.07;;;3.60;;
25531;SDS011;13429;48.816;9.118;2024-03-23T09:43:46;9.85;;;2.50;;
25531;SDS011;13429;48.816;9.118;2024-03-23T09:46:13;6.90;;;2.33;;
25531;SDS011;13429;48.816;9.118;2024-03-23T09:48:39;5.68;;;2.15;;
25531;SDS011;13429;48.816;9.118;2024-03-23T09:51:06;4.93;;;2.38;;
25531;SDS011;13429;48.816;9.118;2024-03-23T09:53:34;8.88;;;3.00;;
25531;SDS011;13429;48.816;9.118;2024-03-23T09:55:59;11.00;;;2.90;;
25531;SDS011;13429;48.816;9.118;2024-03-23T09:58:25;7.45;;;2.63;;
25531;SDS011;13429;48.816;9.118;2024-03-23T10:00:51;9.93;;;3.22;;
25531;SDS011;13429;48.816;9.118;2024-03-23T10:03:16;9.93;;;3.28;;
25531;SDS011;13429;48.816;9.118;2024-03-23T10:05:42;8.35;;;3.30;;
25531;SDS011;13429;48.816;9.118;2024-03-23T10:10:40;7.05;;;3.58;;
25531;SDS011;13429;48.816;9.118;2024-03-23T10:13:06;8.07;;;3.28;;
25531;SDS011;13429;48.816;9.118;2024-03-23T10:15:35;7.18;;;3.38;;
25531;SDS011;13429;48.816;9.118;2024-03-23T10:18:17;8.73;;;3.15;;
25531;SDS011;13429;48.816;9.118;2024-03-23T10:20:45;10.70;;;3.13;;
25531;SDS011;13429;48.816;9.118;2024-03-23T10:23:16;9.57;;;3.63;;
25531;SDS011;13429;48.816;9.118;2024-03-23T10:25:42;9.05;;;3.72;;
25531;SDS011;13429;48.816;9.118;2024-03-23T10:28:08;10.45;;;3.80;;
25531;SDS011;13429;48.816;9.118;2024-03-23T10:30:34;8.57;;;3.60;;
25531;SDS011;13429;48.816;9.118;2024-03-23T10:33:07;8.60;;;3.45;;
25531;SDS011;13429;48.816;9.118;2024-03-23T10:35:33;8.10;;;3.30;;
25531;SDS011;13429;48.816;9.118;2024-03-23T10:38:00;10.95;;;3.35;;
25531;SDS011;13429;48.816;9.118;2024-03-23T10:40:27;7.75;;;3.28;;
25531;SDS011;13429;48.816;9.118;2024-03-23T10:42:55;8.75;;;3.10;;
25531;SDS011;13429;48.816;9.118;2024-03-23T10:45:23;8.88;;;3.63;;
25531;SDS011;13429;48.816;9.118;2024-03-23T10:47:49;7.28;;;2.80;;
25531;SDS011;13429;48.816;9.118;2024-03-23T10:50:15;10.63;;;3.13;;
25531;SDS011;13429;48.816;9.118;2024-03-23T10:52:41;8.30;;;4.03;;
25531;SDS011;13429;48.816;9.118;2024-03-23T10:55:12;9.98;;;3.33;;
25531;SDS011;13429;48.816;9.118;2024-03-23T10:57:41;6.20;;;3.45;;
25531;SDS011;13429;48.816;9.118;2024-03-23T11:00:14;6.43;;;2.92;;
25531;SDS011;13429;48.816;9.118;2024-03-23T11:02:41;8.02;;;3.03;;
25531;SDS011;13429;48.816;9.118;2024-03-23T11:07:51;5.07;;;2.53;;
25531;SDS011;13429;48.816;9.118;2024-03-23T11:10:36;6.65;;;2.60;;
25531;SDS011;13429;48.816;9.118;2024-03-23T11:15:46;7.20;;;3.63;;
25531;SDS011;13429;48.816;9.118;2024-03-23T11:18:12;6.25;;;3.30;;
25531;SDS011;13429;48.816;9.118;2024-03-23T11:20:45;4.15;;;2.65;;
25531;SDS011;13429;48.816;9.118;2024-03-23T11:23:26;3.50;;;2.35;;
25531;SDS011;13429;48.816;9.118;2024-03-23T11:25:52;12.15;;;6.47;;
25531;SDS011;13429;48.816;9.118;2024-03-23T11:28:18;7.28;;;3.25;;
25531;SDS011;13429;48.816;9.118;2024-03-23T11:30:44;3.47;;;2.40;;
25531;SDS011;13429;48.816;9.118;2024-03-23T11:33:09;5.50;;;3.53;;
25531;SDS011;13429;48.816;9.118;2024-03-23T11:35:37;17.60;;;4.45;;
25531;SDS011;13429;48.816;9.118;2024-03-23T11:38:13;7.10;;;3.63;;
25531;SDS011;13429;48.816;9.118;2024-03-23T11:40:44;4.50;;;2.88;;
25531;SDS011;13429;48.816;9.118;2024-03-23T11:45:48;6.35;;;2.67;;
25531;SDS011;13429;48.816;9.118;2024-03-23T11:48:22;4.15;;;2.10;;
25531;SDS011;13429;48.816;9.118;2024-03-23T11:50:49;8.77;;;2.60;;
25531;SDS011;13429;48.816;9.118;2024-03-23T11:53:20;7.15;;;3.42;;
25531;SDS011;13429;48.816;9.118;2024-03-23T11:58:17;8.10;;;2.83;;
25531;SDS011;13429;48.816;9.118;2024-03-23T12:01:02;5.55;;;2.47;;
25531;SDS011;13429;48.816;9.118;2024-03-23T12:03:29;6.57;;;1.60;;
25531;SDS011;13429;48.816;9.118;2024-03-23T12:05:59;3.05;;;1.48;;
25531;SDS011;13429;48.816;9.118;2024-03-23T12:08:31;4.97;;;1.42;;
25531;SDS011;13429;48.816;9.118;2024-03-23T12:13:40;6.97;;;2.55;;
25531;SDS011;13429;48.816;9.118;2024-03-23T12:18:47;9.63;;;1.70;;
25531;SDS011;13429;48.816;9.118;2024-03-23T12:21:14;5.38;;;2.25;;
25531;SDS011;13429;48.816;9.118;2024-03-23T12:23:40;8.00;;;1.52;;
25531;SDS011;13429;48.816;9.118;2024-03-23T12:26:07;8.05;;;2.28;;
25531;SDS011;13429;48.816;9.118;2024-03-23T12:28:32;8.70;;;2.05;;
25531;SDS011;13429;48.816;9.118;2024-03-23T12:30:58;6.60;;;2.40;;
25531;SDS011;13429;48.816;9.118;2024-03-23T12:33:24;6.57;;;2.20;;
25531;SDS011;13429;48.816;9.118;2024-03-23T12:35:50;10.25;;;2.58;;
25531;SDS011;13429;48.816;9.118;2024-03-23T12:38:16;5.72;;;2.30;;
25531;SDS011;13429;48.816;9.118;2024-03-23T12:40:46;8.40;;;2.20;;
25531;SDS011;13429;48.816;9.118;2024-03-23T12:43:20;7.50;;;2.15;;
25531;SDS011;13429;48.816;9.118;2024-03-23T12:45:46;13.30;;;3.38;;
25531;SDS011;13429;48.816;9.118;2024-03-23T12:48:12;7.72;;;2.20;;
25531;SDS011;13429;48.816;9.118;2024-03-23T12:50:38;5.25;;;1.95;;
25531;SDS011;13429;48.816;9.118;2024-03-23T12:53:03;8.57;;;2.17;;
25531;SDS011;13429;48.816;9.118;2024-03-23T12:55:29;6.60;;;2.13;;
25531;SDS011;13429;48.816;9.118;2024-03-23T12:57:55;11.13;;;2.60;;
25531;SDS011;13429;48.816;9.118;2024-03-23T13:00:21;6.45;;;1.92;;
25531;SDS011;13429;48.816;9.118;2024-03-23T13:02:47;6.68;;;2.30;;
25531;SDS011;13429;48.816;9.118;2024-03-23T13:05:13;11.30;;;2.97;;
25531;SDS011;13429;48.816;9.118;2024-03-23T13:07:40;9.68;;;2.53;;
25531;SDS011;13429;48.816;9.118;2024-03-23T13:10:05;6.57;;;2.90;;
25531;SDS011;13429;48.816;9.118;2024-03-23T13:12:32;10.35;;;3.28;;
25531;SDS011;13429;48.816;9.118;2024-03-23T13:14:58;8.10;;;1.92;;
25531;SDS011;13429;48.816;9.118;2024-03-23T13:17:24;7.90;;;1.77;;
25531;SDS011;13429;48.816;9.118;2024-03-23T13:19:52;9.52;;;2.33;;
25531;SDS011;13429;48.816;9.118;2024-03-23T13:22:18;6.90;;;2.08;;
25531;SDS011;13429;48.816;9.118;2024-03-23T13:24:43;6.03;;;2.00;;
25531;SDS011;13429;48.816;9.118;2024-03-23T13:27:09;8.30;;;2.20;;
25531;SDS011;13429;48.816;9.118;2024-03-23T13:29:36;8.20;;;3.00;;
25531;SDS011;13429;48.816;9.118;2024-03-23T13:32:02;9.15;;;2.03;;
25531;SDS011;13429;48.816;9.118;2024-03-23T13:34:28;8.68;;;2.67;;
25531;SDS011;13429;48.816;9.118;2024-03-23T13:36:54;9.98;;;2.28;;
25531;SDS011;13429;48.816;9.118;2024-03-23T13:39:23;6.68;;;2.05;;
25531;SDS011;13429;48.816;9.118;2024-03-23T13:41:48;8.15;;;1.65;;
25531;SDS011;13429;48.816;9.118;2024-03-23T13:44:14;5.38;;;1.77;;
25531;SDS011;13429;48.816;9.118;2024-03-23T13:46:41;6.57;;;1.58;;
25531;SDS011;13429;48.816;9.118;2024-03-23T13:51:51;6.00;;;1.90;;
25531;SDS011;13429;48.816;9.118;2024-03-23T13:54:18;5.68;;;2.03;;
25531;SDS011;13429;48.816;9.118;2024-03-23T13:56:43;9.40;;;1.92;;
25531;SDS011;13429;48.816;9.118;2024-03-23T13:59:09;6.10;;;1.70;;
25531;SDS011;13429;48.816;9.118;2024-03-23T14:01:35;4.28;;;1.30;;
25531;SDS011;13429;48.816;9.118;2024-03-23T14:04:01;6.95;;;1.48;;
25531;SDS011;13429;48.816;9.118;2024-03-23T14:06:26;4.72;;;1.42;;
25531;SDS011;13429;48.816;9.118;2024-03-23T14:08:52;5.47;;;1.60;;
25531;SDS011;13429;48.816;9.118;2024-03-23T14:11:18;4.50;;;1.45;;
25531;SDS011;13429;48.816;9.118;2024-03-23T14:13:44;7.35;;;2.00;;
25531;SDS011;13429;48.816;9.118;2024-03-23T14:16:09;4.25;;;1.70;;
25531;SDS011;13429;48.816;9.118;2024-03-23T14:18:35;8.80;;;1.50;;
25531;SDS011;13429;48.816;9.118;2024-03-23T14:21:01;1.65;;;0.85;;
25531;SDS011;13429;48.816;9.118;2024-03-23T14:23:28;4.97;;;2.65;;
25531;SDS011;13429;48.816;9.118;2024-03-23T14:25:54;5.45;;;3.30;;
25531;SDS011;13429;48.816;9.118;2024-03-23T14:28:21;5.25;;;2.00;;
25531;SDS011;13429;48.816;9.118;2024-03-23T14:30:47;2.22;;;0.90;;
25531;SDS011;13429;48.816;9.118;2024-03-23T14:33:15;1.67;;;1.10;;
25531;SDS011;13429;48.816;9.118;2024-03-23T14:35:41;2.80;;;1.10;;
25531;SDS011;13429;48.816;9.118;2024-03-23T14:38:06;4.28;;;1.40;;
25531;SDS011;13429;48.816;9.118;2024-03-23T14:40:32;4.20;;;1.33;;
25531;SDS011;13429;48.816;9.118;2024-03-23T14:42:58;4.90;;;1.42;;
25531;SDS011;13429;48.816;9.118;2024-03-23T14:45:24;4.20;;;1.48;;
25531;SDS011;13429;48.816;9.118;2024-03-23T14:47:52;2.90;;;1.52;;
25531;SDS011;13429;48.816;9.118;2024-03-23T14:50:19;2.80;;;1.38;;
25531;SDS011;13429;48.816;9.118;2024-03-23T14:52:46;4.43;;;1.60;;
25531;SDS011;13429;48.816;9.118;2024-03-23T14:55:12;5.32;;;1.40;;
25531;SDS011;13429;48.816;9.118;2024-03-23T14:57:38;4.70;;;1.65;;
25531;SDS011;13429;48.816;9.118;2024-03-23T15:00:08;3.88;;;1.23;;
25531;SDS011;13429;48.816;9.118;2024-03-23T15:02:37;6.45;;;2.25;;
25531;SDS011;13429;48.816;9.118;2024-03-23T15:05:04;5.50;;;1.30;;
25531;SDS011;13429;48.816;9.118;2024-03-23T15:07:32;4.47;;;1.48;;
25531;SDS011;13429;48.816;9.118;2024-03-23T15:09:58;6.00;;;1.60;;
25531;SDS011;13429;48.816;9.118;2024-03-23T15:12:24;3.72;;;1.23;;
25531;SDS011;13429;48.816;9.118;2024-03-23T15:14:50;3.08;;;0.88;;
25531;SDS011;13429;48.816;9.118;2024-03-23T15:17:15;7.53;;;1.20;;
25531;SDS011;13429;48.816;9.118;2024-03-23T15:19:41;3.15;;;1.10;;
25531;SDS011;13429;48.816;9.118;2024-03-23T15:22:07;3.83;;;0.98;;
25531;SDS011;13429;48.816;9.118;2024-03-23T15:24:34;6.65;;;1.35;;
25531;SDS011;13429;48.816;9.118;2024-03-23T15:27:03;2.13;;;1.45;;
25531;SDS011;13429;48.816;9.118;2024-03-23T15:29:28;2.38;;;0.80;;
25531;SDS011;13429;48.816;9.118;2024-03-23T15:31:54;3.00;;;1.08;;
25531;SDS011;13429;48.816;9.118;2024-03-23T15:34:20;4.40;;;1.90;;
25531;SDS011;13429;48.816;9.118;2024-03-23T15:36:49;1.63;;;0.90;;
25531;SDS011;13429;48.816;9.118;2024-03-23T15:39:16;3.30;;;1.10;;
25531;SDS011;13429;48.816;9.118;2024-03-23T15:41:45;2.00;;;0.98;;
25531;SDS011;13429;48.816;9.118;2024-03-23T15:44:11;1.73;;;0.77;;
25531;SDS011;13429;48.816;9.118;2024-03-23T15:46:37;6.13;;;0.95;;
25531;SDS011;13429;48.816;9.118;2024-03-23T15:49:03;1.77;;;1.20;;
25531;SDS011;13429;48.816;9.118;2024-03-23T15:51:29;2.22;;;0.80;;
25531;SDS011;13429;48.816;9.118;2024-03-23T15:53:58;4.90;;;1.77;;
25531;SDS011;13429;48.816;9.118;2024-03-23T15:56:24;2.97;;;0.80;;
25531;SDS011;13429;48.816;9.118;2024-03-23T15:58:50;5.28;;;1.20;;
25531;SDS011;13429;48.816;9.118;2024-03-23T16:01:16;2.30;;;1.23;;
25531;SDS011;13429;48.816;9.118;2024-03-23T16:03:41;2.08;;;0.95;;